sensor_id;sensor_type;location;lat;lon;timestamp;temperature;humidity
41060;DHT22;26811;53.160;8.202;2024-02-21T00:04:55;9.30;99.90
41060;DHT22;26811;53.160;8.202;2024-02-21T00:09:55;9.30;99.90
41060;DHT22;26811;53.160;8.202;2024-02-21T00:14:56;9.30;99.90
41060;DHT22;26811;53.160;8.202;2024-02-21T00:19:56;9.30;99.90
41060;DHT22;26811;53.160;8.202;2024-02-21T00:24:57;9.30;99.90
41060;DHT22;26811;53.160;8.202;2024-02-21T00:29:58;9.40;99.90
41060;DHT22;26811;53.160;8.202;2024-02-21T00:34:59;9.40;99.90
41060;DHT22;26811;53.160;8.202;2024-02-21T00:39:59;9.40;99.90
41060;DHT22;26811;53.160;8.202;2024-02-21T00:45:00;9.40;99.90
41060;DHT22;26811;53.160;8.202;2024-02-21T00:50:00;9.40;99.90
41060;DHT22;26811;53.160;8.202;2024-02-21T00:55:01;9.50;99.90
41060;DHT22;26811;53.160;8.202;2024-02-21T01:00:03;9.40;99.90
41060;DHT22;26811;53.160;8.202;2024-02-21T01:05:04;9.40;99.90
41060;DHT22;26811;53.160;8.202;2024-02-21T01:10:05;9.40;99.90
41060;DHT22;26811;53.160;8.202;2024-02-21T01:15:06;9.50;99.90
41060;DHT22;26811;53.160;8.202;2024-02-21T01:20:07;9.50;99.90
41060;DHT22;26811;53.160;8.202;2024-02-21T01:25:08;9.50;99.90
41060;DHT22;26811;53.160;8.202;2024-02-21T01:30:12;9.50;99.90
41060;DHT22;26811;53.160;8.202;2024-02-21T01:35:12;9.50;99.90
41060;DHT22;26811;53.160;8.202;2024-02-21T01:40:14;9.40;99.90
41060;DHT22;26811;53.160;8.202;2024-02-21T01:45:15;9.40;99.90
41060;DHT22;26811;53.160;8.202;2024-02-21T01:50:16;9.40;99.90
41060;DHT22;26811;53.160;8.202;2024-02-21T01:55:17;9.40;99.90
41060;DHT22;26811;53.160;8.202;2024-02-21T02:00:18;9.40;99.90
41060;DHT22;26811;53.160;8.202;2024-02-21T02:05:20;9.40;99.90
41060;DHT22;26811;53.160;8.202;2024-02-21T02:10:21;9.30;99.90
41060;DHT22;26811;53.160;8.202;2024-02-21T02:15:22;9.30;99.90
41060;DHT22;26811;53.160;8.202;2024-02-21T02:20:22;9.40;99.90
41060;DHT22;26811;53.160;8.202;2024-02-21T02:25:23;9.40;99.90
41060;DHT22;26811;53.160;8.202;2024-02-21T02:30:23;9.40;99.90
41060;DHT22;26811;53.160;8.202;2024-02-21T02:35:24;9.40;99.90
41060;DHT22;26811;53.160;8.202;2024-02-21T02:40:24;9.30;99.90
41060;DHT22;26811;53.160;8.202;2024-02-21T02:45:25;9.30;99.90
41060;DHT22;26811;53.160;8.202;2024-02-21T02:50:29;9.30;99.90
41060;DHT22;26811;53.160;8.202;2024-02-21T02:55:29;9.40;99.90
41060;DHT22;26811;53.160;8.202;2024-02-21T03:00:30;9.30;99.90
41060;DHT22;26811;53.160;8.202;2024-02-21T03:05:30;9.30;99.90
41060;DHT22;26811;53.160;8.202;2024-02-21T03:10:31;9.30;99.90
41060;DHT22;26811;53.160;8.202;2024-02-21T03:15:31;9.10;99.90
41060;DHT22;26811;53.160;8.202;2024-02-21T03:20:32;9.10;99.90
41060;DHT22;26811;53.160;8.202;2024-02-21T03:25:33;9.00;99.90
41060;DHT22;26811;53.160;8.202;2024-02-21T03:30:33;8.90;99.90
41060;DHT22;26811;53.160;8.202;2024-02-21T03:35:34;8.80;99.90
41060;DHT22;26811;53.160;8.202;2024-02-21T03:40:34;8.80;99.90
41060;DHT22;26811;53.160;8.202;2024-02-21T03:45:35;8.80;99.90
41060;DHT22;26811;53.160;8.202;2024-02-21T03:50:35;8.70;99.90
41060;DHT22;26811;53.160;8.202;2024-02-21T03:55:36;8.70;99.90
41060;DHT22;26811;53.160;8.202;2024-02-21T04:00:36;8.60;99.90
41060;DHT22;26811;53.160;8.202;2024-02-21T04:05:37;8.60;99.90
41060;DHT22;26811;53.160;8.202;2024-02-21T04:10:37;8.60;99.90
41060;DHT22;26811;53.160;8.202;2024-02-21T04:15:38;8.60;99.90
41060;DHT22;26811;53.160;8.202;2024-02-21T04:20:38;8.60;99.90
41060;DHT22;26811;53.160;8.202;2024-02-21T04:25:39;8.60;99.90
41060;DHT22;26811;53.160;8.202;2024-02-21T04:30:39;8.60;99.90
41060;DHT22;26811;53.160;8.202;2024-02-21T04:35:40;8.60;99.90
41060;DHT22;26811;53.160;8.202;2024-02-21T04:40:40;8.60;99.90
41060;DHT22;26811;53.160;8.202;2024-02-21T04:45:41;8.60;99.90
41060;DHT22;26811;53.160;8.202;2024-02-21T04:50:41;8.60;99.90
41060;DHT22;26811;53.160;8.202;2024-02-21T04:55:42;8.60;99.90
41060;DHT22;26811;53.160;8.202;2024-02-21T05:00:43;8.60;99.90
41060;DHT22;26811;53.160;8.202;2024-02-21T05:05:43;8.60;99.90
41060;DHT22;26811;53.160;8.202;2024-02-21T05:10:44;8.60;99.90
41060;DHT22;26811;53.160;8.202;2024-02-21T05:15:44;8.60;99.90
41060;DHT22;26811;53.160;8.202;2024-02-21T05:20:45;8.60;99.90
41060;DHT22;26811;53.160;8.202;2024-02-21T05:25:45;8.60;99.90
41060;DHT22;26811;53.160;8.202;2024-02-21T05:30:46;8.60;99.90
41060;DHT22;26811;53.160;8.202;2024-02-21T05:35:47;8.60;99.90
41060;DHT22;26811;53.160;8.202;2024-02-21T05:40:51;8.60;99.90
41060;DHT22;26811;53.160;8.202;2024-02-21T05:45:51;8.60;99.90
41060;DHT22;26811;53.160;8.202;2024-02-21T05:50:52;8.60;99.90
41060;DHT22;26811;53.160;8.202;2024-02-21T05:55:53;8.60;99.90
41060;DHT22;26811;53.160;8.202;2024-02-21T06:00:54;8.60;99.90
41060;DHT22;26811;53.160;8.202;2024-02-21T06:05:54;8.60;99.90
41060;DHT22;26811;53.160;8.202;2024-02-21T06:10:55;8.70;99.90
41060;DHT22;26811;53.160;8.202;2024-02-21T06:15:55;8.60;99.90
41060;DHT22;26811;53.160;8.202;2024-02-21T06:20:56;8.60;99.90
41060;DHT22;26811;53.160;8.202;2024-02-21T06:25:56;8.70;99.90
41060;DHT22;26811;53.160;8.202;2024-02-21T06:30:57;8.70;99.90
41060;DHT22;26811;53.160;8.202;2024-02-21T06:35:57;8.60;99.90
41060;DHT22;26811;53.160;8.202;2024-02-21T06:40:58;8.70;99.90
41060;DHT22;26811;53.160;8.202;2024-02-21T06:46:00;8.70;99.90
41060;DHT22;26811;53.160;8.202;2024-02-21T06:51:02;8.70;99.90
41060;DHT22;26811;53.160;8.202;2024-02-21T06:56:03;8.70;99.90
41060;DHT22;26811;53.160;8.202;2024-02-21T07:01:04;8.70;99.90
41060;DHT22;26811;53.160;8.202;2024-02-21T07:06:05;8.70;99.90
41060;DHT22;26811;53.160;8.202;2024-02-21T07:11:05;8.70;99.90
41060;DHT22;26811;53.160;8.202;2024-02-21T07:16:07;8.70;99.90
41060;DHT22;26811;53.160;8.202;2024-02-21T07:21:07;8.70;99.90
41060;DHT22;26811;53.160;8.202;2024-02-21T07:26:08;8.70;99.90
41060;DHT22;26811;53.160;8.202;2024-02-21T07:31:08;8.70;99.90
41060;DHT22;26811;53.160;8.202;2024-02-21T07:36:11;8.70;99.90
41060;DHT22;26811;53.160;8.202;2024-02-21T07:41:11;8.60;99.90
41060;DHT22;26811;53.160;8.202;2024-02-21T07:46:12;8.70;99.90
41060;DHT22;26811;53.160;8.202;2024-02-21T07:51:12;8.70;99.90
41060;DHT22;26811;53.160;8.202;2024-02-21T07:56:14;8.70;99.90
41060;DHT22;26811;53.160;8.202;2024-02-21T08:01:21;8.70;99.90
41060;DHT22;26811;53.160;8.202;2024-02-21T08:06:21;8.70;99.90
41060;DHT22;26811;53.160;8.202;2024-02-21T08:11:22;8.70;99.90
41060;DHT22;26811;53.160;8.202;2024-02-21T08:16:23;8.80;99.90
41060;DHT22;26811;53.160;8.202;2024-02-21T08:21:23;8.80;99.90
41060;DHT22;26811;53.160;8.202;2024-02-21T08:26:24;8.80;99.90
41060;DHT22;26811;53.160;8.202;2024-02-21T08:31:28;8.80;99.90
41060;DHT22;26811;53.160;8.202;2024-02-21T08:36:32;8.90;99.90
41060;DHT22;26811;53.160;8.202;2024-02-21T08:41:34;8.90;99.90
41060;DHT22;26811;53.160;8.202;2024-02-21T08:46:35;8.90;99.90
41060;DHT22;26811;53.160;8.202;2024-02-21T08:51:38;8.90;99.90
41060;DHT22;26811;53.160;8.202;2024-02-21T08:56:39;9.00;99.90
41060;DHT22;26811;53.160;8.202;2024-02-21T09:01:39;9.00;99.90
41060;DHT22;26811;53.160;8.202;2024-02-21T09:06:40;9.00;99.90
41060;DHT22;26811;53.160;8.202;2024-02-21T09:11:42;8.90;99.90
41060;DHT22;26811;53.160;8.202;2024-02-21T09:16:43;8.90;99.90
41060;DHT22;26811;53.160;8.202;2024-02-21T09:21:44;8.90;99.90
41060;DHT22;26811;53.160;8.202;2024-02-21T09:26:44;8.80;99.90
41060;DHT22;26811;53.160;8.202;2024-02-21T09:31:45;8.80;99.90
41060;DHT22;26811;53.160;8.202;2024-02-21T09:36:48;8.80;99.90
41060;DHT22;26811;53.160;8.202;2024-02-21T09:41:53;8.80;99.90
41060;DHT22;26811;53.160;8.202;2024-02-21T09:47:10;8.80;99.90
41060;DHT22;26811;53.160;8.202;2024-02-21T09:52:13;8.80;99.90
41060;DHT22;26811;53.160;8.202;2024-02-21T09:57:15;8.80;99.90
41060;DHT22;26811;53.160;8.202;2024-02-21T10:02:16;8.80;99.90
41060;DHT22;26811;53.160;8.202;2024-02-21T10:07:17;8.70;99.90
41060;DHT22;26811;53.160;8.202;2024-02-21T10:12:23;8.80;99.90
41060;DHT22;26811;53.160;8.202;2024-02-21T10:17:25;8.80;99.90
41060;DHT22;26811;53.160;8.202;2024-02-21T10:22:25;8.80;99.90
41060;DHT22;26811;53.160;8.202;2024-02-21T10:27:28;8.80;99.90
41060;DHT22;26811;53.160;8.202;2024-02-21T10:32:29;8.80;99.90
41060;DHT22;26811;53.160;8.202;2024-02-21T10:37:31;8.80;99.90
41060;DHT22;26811;53.160;8.202;2024-02-21T10:42:37;8.80;99.90
41060;DHT22;26811;53.160;8.202;2024-02-21T10:47:40;8.90;99.90
41060;DHT22;26811;53.160;8.202;2024-02-21T10:52:59;8.90;99.90
41060;DHT22;26811;53.160;8.202;2024-02-21T10:58:04;9.00;99.90
41060;DHT22;26811;53.160;8.202;2024-02-21T11:03:05;9.20;99.90
41060;DHT22;26811;53.160;8.202;2024-02-21T11:08:06;9.30;99.90
41060;DHT22;26811;53.160;8.202;2024-02-21T11:13:07;9.50;99.90
41060;DHT22;26811;53.160;8.202;2024-02-21T11:18:08;9.60;99.90
41060;DHT22;26811;53.160;8.202;2024-02-21T11:23:09;9.70;99.90
41060;DHT22;26811;53.160;8.202;2024-02-21T11:28:09;9.80;99.90
41060;DHT22;26811;53.160;8.202;2024-02-21T11:33:12;9.80;99.90
41060;DHT22;26811;53.160;8.202;2024-02-21T11:38:13;9.90;99.90
41060;DHT22;26811;53.160;8.202;2024-02-21T11:43:17;9.90;99.90
41060;DHT22;26811;53.160;8.202;2024-02-21T11:48:17;9.90;99.90
41060;DHT22;26811;53.160;8.202;2024-02-21T11:53:18;10.00;99.90
41060;DHT22;26811;53.160;8.202;2024-02-21T11:58:18;10.10;99.90
41060;DHT22;26811;53.160;8.202;2024-02-21T12:03:19;10.20;99.90
41060;DHT22;26811;53.160;8.202;2024-02-21T12:08:20;10.30;99.90
41060;DHT22;26811;53.160;8.202;2024-02-21T12:13:23;10.40;99.90
41060;DHT22;26811;53.160;8.202;2024-02-21T12:18:23;10.50;99.90
41060;DHT22;26811;53.160;8.202;2024-02-21T12:23:27;10.40;99.90
41060;DHT22;26811;53.160;8.202;2024-02-21T12:28:27;10.50;99.90
41060;DHT22;26811;53.160;8.202;2024-02-21T12:33:28;10.50;99.90
41060;DHT22;26811;53.160;8.202;2024-02-21T12:38:28;10.60;99.90
41060;DHT22;26811;53.160;8.202;2024-02-21T12:43:29;10.60;99.90
41060;DHT22;26811;53.160;8.202;2024-02-21T12:48:29;10.70;99.90
41060;DHT22;26811;53.160;8.202;2024-02-21T12:53:30;10.70;99.90
41060;DHT22;26811;53.160;8.202;2024-02-21T12:58:31;10.70;99.90
41060;DHT22;26811;53.160;8.202;2024-02-21T13:03:31;10.60;99.90
41060;DHT22;26811;53.160;8.202;2024-02-21T13:08:32;10.60;99.90
41060;DHT22;26811;53.160;8.202;2024-02-21T13:13:34;10.60;99.90
41060;DHT22;26811;53.160;8.202;2024-02-21T13:18:35;10.50;99.90
41060;DHT22;26811;53.160;8.202;2024-02-21T13:23:38;10.50;99.90
41060;DHT22;26811;53.160;8.202;2024-02-21T13:28:38;10.50;99.90
41060;DHT22;26811;53.160;8.202;2024-02-21T13:33:39;10.50;99.90
41060;DHT22;26811;53.160;8.202;2024-02-21T13:38:40;10.60;99.90
41060;DHT22;26811;53.160;8.202;2024-02-21T13:43:40;10.60;99.90
41060;DHT22;26811;53.160;8.202;2024-02-21T13:48:41;10.60;99.90
41060;DHT22;26811;53.160;8.202;2024-02-21T13:53:41;10.60;99.90
41060;DHT22;26811;53.160;8.202;2024-02-21T13:58:43;10.60;99.90
41060;DHT22;26811;53.160;8.202;2024-02-21T14:03:43;10.60;99.90
41060;DHT22;26811;53.160;8.202;2024-02-21T14:08:44;10.60;99.90
41060;DHT22;26811;53.160;8.202;2024-02-21T14:13:45;10.60;99.90
41060;DHT22;26811;53.160;8.202;2024-02-21T14:18:54;10.50;99.90
41060;DHT22;26811;53.160;8.202;2024-02-21T14:23:58;10.50;99.90
41060;DHT22;26811;53.160;8.202;2024-02-21T14:28:58;10.50;99.90
41060;DHT22;26811;53.160;8.202;2024-02-21T14:34:03;10.50;99.90
41060;DHT22;26811;53.160;8.202;2024-02-21T14:39:04;10.40;99.90
41060;DHT22;26811;53.160;8.202;2024-02-21T14:44:05;10.30;99.90
41060;DHT22;26811;53.160;8.202;2024-02-21T14:49:06;10.30;99.90
41060;DHT22;26811;53.160;8.202;2024-02-21T14:54:06;10.30;99.90
41060;DHT22;26811;53.160;8.202;2024-02-21T14:59:07;10.20;99.90
41060;DHT22;26811;53.160;8.202;2024-02-21T15:04:07;10.20;99.90
41060;DHT22;26811;53.160;8.202;2024-02-21T15:09:08;10.10;99.90
41060;DHT22;26811;53.160;8.202;2024-02-21T15:14:09;10.20;99.90
41060;DHT22;26811;53.160;8.202;2024-02-21T15:19:09;10.10;99.90
41060;DHT22;26811;53.160;8.202;2024-02-21T15:24:10;10.10;99.90
41060;DHT22;26811;53.160;8.202;2024-02-21T15:29:10;10.10;99.90
41060;DHT22;26811;53.160;8.202;2024-02-21T15:34:11;10.00;99.90
41060;DHT22;26811;53.160;8.202;2024-02-21T15:39:11;10.00;99.90
41060;DHT22;26811;53.160;8.202;2024-02-21T15:44:12;10.00;99.90
41060;DHT22;26811;53.160;8.202;2024-02-21T15:49:13;9.90;99.90
41060;DHT22;26811;53.160;8.202;2024-02-21T15:54:13;9.90;99.90
41060;DHT22;26811;53.160;8.202;2024-02-21T15:59:17;9.90;99.90
41060;DHT22;26811;53.160;8.202;2024-02-21T16:04:18;9.80;99.90
41060;DHT22;26811;53.160;8.202;2024-02-21T16:09:18;9.80;99.90
41060;DHT22;26811;53.160;8.202;2024-02-21T16:14:19;9.80;99.90
41060;DHT22;26811;53.160;8.202;2024-02-21T16:19:19;9.70;99.90
41060;DHT22;26811;53.160;8.202;2024-02-21T16:24:20;9.70;99.90
41060;DHT22;26811;53.160;8.202;2024-02-21T16:29:20;9.70;99.90
41060;DHT22;26811;53.160;8.202;2024-02-21T16:34:23;9.70;99.90
41060;DHT22;26811;53.160;8.202;2024-02-21T16:39:24;9.60;99.90
41060;DHT22;26811;53.160;8.202;2024-02-21T16:44:25;9.60;99.90
41060;DHT22;26811;53.160;8.202;2024-02-21T16:49:25;9.50;99.90
41060;DHT22;26811;53.160;8.202;2024-02-21T16:54:26;9.50;99.90
41060;DHT22;26811;53.160;8.202;2024-02-21T16:59:27;9.50;99.90
41060;DHT22;26811;53.160;8.202;2024-02-21T17:04:27;9.50;99.90
41060;DHT22;26811;53.160;8.202;2024-02-21T17:09:28;9.50;99.90
41060;DHT22;26811;53.160;8.202;2024-02-21T17:14:31;9.40;99.90
41060;DHT22;26811;53.160;8.202;2024-02-21T17:19:32;9.40;99.90
41060;DHT22;26811;53.160;8.202;2024-02-21T17:24:35;9.40;99.90
41060;DHT22;26811;53.160;8.202;2024-02-21T17:29:37;9.40;99.90
41060;DHT22;26811;53.160;8.202;2024-02-21T17:34:46;9.40;99.90
41060;DHT22;26811;53.160;8.202;2024-02-21T17:39:50;9.40;99.90
41060;DHT22;26811;53.160;8.202;2024-02-21T17:44:50;9.30;99.90
41060;DHT22;26811;53.160;8.202;2024-02-21T17:49:52;9.20;99.90
41060;DHT22;26811;53.160;8.202;2024-02-21T17:54:52;9.10;99.90
41060;DHT22;26811;53.160;8.202;2024-02-21T17:59:53;9.00;99.90
41060;DHT22;26811;53.160;8.202;2024-02-21T18:04:54;8.90;99.90
41060;DHT22;26811;53.160;8.202;2024-02-21T18:09:55;8.90;99.90
41060;DHT22;26811;53.160;8.202;2024-02-21T18:14:56;8.90;99.90
41060;DHT22;26811;53.160;8.202;2024-02-21T18:19:56;8.90;99.90
41060;DHT22;26811;53.160;8.202;2024-02-21T18:24:59;8.90;99.90
41060;DHT22;26811;53.160;8.202;2024-02-21T18:29:59;8.80;99.90
41060;DHT22;26811;53.160;8.202;2024-02-21T18:35:00;8.80;99.90
41060;DHT22;26811;53.160;8.202;2024-02-21T18:40:01;8.80;99.90
41060;DHT22;26811;53.160;8.202;2024-02-21T18:45:01;8.70;99.90
41060;DHT22;26811;53.160;8.202;2024-02-21T18:50:02;8.70;99.90
41060;DHT22;26811;53.160;8.202;2024-02-21T18:55:03;8.60;99.90
41060;DHT22;26811;53.160;8.202;2024-02-21T19:00:05;8.50;99.90
41060;DHT22;26811;53.160;8.202;2024-02-21T19:05:08;8.50;99.90
41060;DHT22;26811;53.160;8.202;2024-02-21T19:10:08;8.40;99.90
41060;DHT22;26811;53.160;8.202;2024-02-21T19:15:09;8.30;99.90
41060;DHT22;26811;53.160;8.202;2024-02-21T19:20:10;8.20;99.90
41060;DHT22;26811;53.160;8.202;2024-02-21T19:25:11;8.20;99.90
41060;DHT22;26811;53.160;8.202;2024-02-21T19:30:18;8.20;99.90
41060;DHT22;26811;53.160;8.202;2024-02-21T19:35:20;8.10;99.90
41060;DHT22;26811;53.160;8.202;2024-02-21T19:40:21;8.10;99.90
41060;DHT22;26811;53.160;8.202;2024-02-21T19:45:23;8.10;99.90
41060;DHT22;26811;53.160;8.202;2024-02-21T19:50:25;8.10;99.90
41060;DHT22;26811;53.160;8.202;2024-02-21T19:55:32;8.10;99.90
41060;DHT22;26811;53.160;8.202;2024-02-21T20:00:33;8.00;99.90
41060;DHT22;26811;53.160;8.202;2024-02-21T20:05:34;8.00;99.90
41060;DHT22;26811;53.160;8.202;2024-02-21T20:10:34;8.00;99.90
41060;DHT22;26811;53.160;8.202;2024-02-21T20:15:35;8.00;99.90
41060;DHT22;26811;53.160;8.202;2024-02-21T20:20:36;7.90;99.90
41060;DHT22;26811;53.160;8.202;2024-02-21T20:25:36;7.90;99.90
41060;DHT22;26811;53.160;8.202;2024-02-21T20:30:37;7.90;99.90
41060;DHT22;26811;53.160;8.202;2024-02-21T20:35:38;7.90;99.90
41060;DHT22;26811;53.160;8.202;2024-02-21T20:40:38;7.90;99.90
41060;DHT22;26811;53.160;8.202;2024-02-21T20:45:39;7.80;99.90
41060;DHT22;26811;53.160;8.202;2024-02-21T20:50:39;7.80;99.90
41060;DHT22;26811;53.160;8.202;2024-02-21T20:55:40;7.80;99.90
41060;DHT22;26811;53.160;8.202;2024-02-21T21:00:41;7.80;99.90
41060;DHT22;26811;53.160;8.202;2024-02-21T21:05:42;7.70;99.90
41060;DHT22;26811;53.160;8.202;2024-02-21T21:10:43;7.70;99.90
41060;DHT22;26811;53.160;8.202;2024-02-21T21:15:44;7.70;99.90
41060;DHT22;26811;53.160;8.202;2024-02-21T21:20:45;7.70;99.90
41060;DHT22;26811;53.160;8.202;2024-02-21T21:25:45;7.70;99.90
41060;DHT22;26811;53.160;8.202;2024-02-21T21:30:46;7.60;99.90
41060;DHT22;26811;53.160;8.202;2024-02-21T21:35:47;7.60;99.90
41060;DHT22;26811;53.160;8.202;2024-02-21T21:40:51;7.60;99.90
41060;DHT22;26811;53.160;8.202;2024-02-21T21:45:54;7.60;99.90
41060;DHT22;26811;53.160;8.202;2024-02-21T21:50:55;7.60;99.90
41060;DHT22;26811;53.160;8.202;2024-02-21T21:55:55;7.60;99.90
41060;DHT22;26811;53.160;8.202;2024-02-21T22:00:56;7.50;99.90
41060;DHT22;26811;53.160;8.202;2024-02-21T22:05:57;7.50;99.90
41060;DHT22;26811;53.160;8.202;2024-02-21T22:10:57;7.50;99.90
41060;DHT22;26811;53.160;8.202;2024-02-21T22:15:58;7.50;99.90
41060;DHT22;26811;53.160;8.202;2024-02-21T22:21:01;7.50;99.90
41060;DHT22;26811;53.160;8.202;2024-02-21T22:26:03;7.50;99.90
41060;DHT22;26811;53.160;8.202;2024-02-21T22:31:04;7.50;99.90
41060;DHT22;26811;53.160;8.202;2024-02-21T22:36:06;7.50;99.90
41060;DHT22;26811;53.160;8.202;2024-02-21T22:41:07;7.50;99.90
41060;DHT22;26811;53.160;8.202;2024-02-21T22:46:10;7.50;99.90
41060;DHT22;26811;53.160;8.202;2024-02-21T22:51:11;7.50;99.90
41060;DHT22;26811;53.160;8.202;2024-02-21T22:56:11;7.50;99.90
41060;DHT22;26811;53.160;8.202;2024-02-21T23:01:14;7.50;99.90
41060;DHT22;26811;53.160;8.202;2024-02-21T23:06:17;7.50;99.90
41060;DHT22;26811;53.160;8.202;2024-02-21T23:11:17;7.50;99.90
41060;DHT22;26811;53.160;8.202;2024-02-21T23:16:18;7.50;99.90
41060;DHT22;26811;53.160;8.202;2024-02-21T23:21:18;7.60;99.90
41060;DHT22;26811;53.160;8.202;2024-02-21T23:26:29;7.60;99.90
41060;DHT22;26811;53.160;8.202;2024-02-21T23:31:31;7.60;99.90
41060;DHT22;26811;53.160;8.202;2024-02-21T23:36:31;7.60;99.90
41060;DHT22;26811;53.160;8.202;2024-02-21T23:41:32;7.60;99.90
41060;DHT22;26811;53.160;8.202;2024-02-21T23:46:32;7.70;99.90
41060;DHT22;26811;53.160;8.202;2024-02-21T23:51:33;7.70;99.90
41060;DHT22;26811;53.160;8.202;2024-02-21T23:56:35;7.70;99.90
